Time;durP1;ratioP1;P1;durP2;ratioP2;P2;SDS_P1;SDS_P2;PMS_P1;PMS_P2;Temp;Humidity;BMP_temperature;BMP_pressure;BME280_temperature;BME280_humidity;BME280_pressure;Samples;Min_cycle;Max_cycle;Signal;HPM_P1;HPM_P2
2021/08/14 00:01:42;;;;;;;8.10;5.83;;;22.60;99.90;;;;;;5035244;28;20460;-46
2021/08/14 00:04:09;;;;;;;6.83;5.70;;;22.60;99.90;;;;;;5035168;28;20471;-43
2021/08/14 00:06:36;;;;;;;9.50;5.87;;;22.60;99.90;;;;;;5035173;28;20448;-46
2021/08/14 00:09:03;;;;;;;9.27;6.30;;;22.50;99.90;;;;;;5035162;28;20514;-43
2021/08/14 00:11:29;;;;;;;7.47;5.20;;;22.50;99.90;;;;;;5034900;28;20444;-42
2021/08/14 00:13:56;;;;;;;8.27;5.83;;;22.50;99.90;;;;;;5034930;28;20770;-44
2021/08/14 00:16:22;;;;;;;6.67;5.03;;;22.50;99.90;;;;;;5034654;28;20833;-49
2021/08/14 00:18:50;;;;;;;19.37;5.37;;;22.50;99.90;;;;;;5034660;28;20459;-43
2021/08/14 00:21:17;;;;;;;8.63;5.70;;;22.40;99.90;;;;;;5034888;28;20529;-44
2021/08/14 00:23:44;;;;;;;7.70;4.63;;;22.40;99.90;;;;;;5034587;28;20900;-48
2021/08/14 00:26:11;;;;;;;5.93;4.80;;;22.40;99.90;;;;;;5034852;28;20452;-43
2021/08/14 00:28:37;;;;;;;7.17;4.73;;;22.30;99.90;;;;;;5034473;28;20947;-45
2021/08/14 00:31:04;;;;;;;6.83;5.30;;;22.30;99.90;;;;;;5034743;28;20444;-43
2021/08/14 00:33:31;;;;;;;6.70;5.40;;;22.30;99.90;;;;;;5034227;28;20455;-46
2021/08/14 00:35:59;;;;;;;6.10;5.40;;;22.20;99.90;;;;;;5034521;28;20452;-42
2021/08/14 00:38:25;;;;;;;11.13;5.27;;;22.20;99.90;;;;;;5034683;28;20491;-42
2021/08/14 00:40:52;;;;;;;7.70;5.43;;;22.20;99.90;;;;;;5034441;28;20506;-44
2021/08/14 00:43:19;;;;;;;5.40;4.70;;;22.10;99.90;;;;;;5034581;28;20448;-43
2021/08/14 00:45:46;;;;;;;5.13;4.63;;;22.20;99.90;;;;;;5034542;28;20792;-43
2021/08/14 00:48:12;;;;;;;6.90;4.30;;;22.10;99.90;;;;;;5034432;28;20440;-48
2021/08/14 00:50:39;;;;;;;6.20;4.10;;;22.10;99.90;;;;;;5034141;28;20456;-45
2021/08/14 00:53:07;;;;;;;6.40;4.90;;;22.00;99.90;;;;;;5034199;28;20944;-45
2021/08/14 00:55:35;;;;;;;7.27;5.17;;;22.00;99.90;;;;;;5034138;28;20834;-46
2021/08/14 00:58:02;;;;;;;6.50;4.73;;;22.00;99.90;;;;;;5034086;28;20475;-44
2021/08/14 01:00:28;;;;;;;9.30;5.23;;;22.00;99.90;;;;;;5034361;28;20463;-44
2021/08/14 01:02:56;;;;;;;5.50;4.80;;;21.90;99.90;;;;;;5034519;28;20817;-44
2021/08/14 01:05:22;;;;;;;12.23;5.00;;;21.90;99.90;;;;;;5034265;28;20585;-44
2021/08/14 01:07:50;;;;;;;7.97;4.70;;;21.80;99.90;;;;;;5034769;28;20447;-50
2021/08/14 01:10:18;;;;;;;7.93;5.33;;;21.80;99.90;;;;;;5034153;28;20538;-51
2021/08/14 01:12:47;;;;;;;6.20;4.30;;;21.80;99.90;;;;;;5034132;28;20433;-43
2021/08/14 01:15:14;;;;;;;7.60;5.07;;;21.80;99.90;;;;;;5034180;28;20479;-44
2021/08/14 01:17:41;;;;;;;5.87;5.07;;;21.70;99.90;;;;;;5033900;28;20968;-43
2021/08/14 01:20:09;;;;;;;16.00;5.87;;;21.70;99.90;;;;;;5034242;28;20451;-43
2021/08/14 01:22:36;;;;;;;9.30;5.23;;;21.60;99.90;;;;;;5033965;28;20463;-46
2021/08/14 01:25:04;;;;;;;6.17;5.13;;;21.60;99.90;;;;;;5034153;28;20482;-45
2021/08/14 01:27:35;;;;;;;9.80;5.03;;;21.50;99.90;;;;;;5034165;28;20444;-44
2021/08/14 01:30:01;;;;;;;9.60;4.80;;;21.50;99.90;;;;;;5033931;28;20452;-48
2021/08/14 01:32:28;;;;;;;6.10;5.50;;;21.40;99.90;;;;;;5034213;28;20448;-48
2021/08/14 01:34:55;;;;;;;5.10;4.17;;;21.30;99.90;;;;;;5034161;28;20448;-46
2021/08/14 01:37:22;;;;;;;9.63;5.13;;;21.30;99.90;;;;;;5034045;28;20476;-49
2021/08/14 01:39:48;;;;;;;8.63;5.80;;;21.20;99.90;;;;;;5034128;28;20848;-48
2021/08/14 01:42:15;;;;;;;11.17;5.23;;;21.20;99.90;;;;;;5033840;28;20445;-44
2021/08/14 01:44:44;;;;;;;7.53;5.40;;;21.10;99.90;;;;;;5034140;28;20820;-45
2021/08/14 01:47:11;;;;;;;9.60;6.30;;;21.10;99.90;;;;;;5037192;28;20451;-47
2021/08/14 01:49:38;;;;;;;8.00;5.90;;;21.10;99.90;;;;;;5037801;28;20444;-48
2021/08/14 01:52:12;;;;;;;12.97;4.80;;;21.00;99.90;;;;;;5037453;28;20460;-44
2021/08/14 01:54:39;;;;;;;7.13;4.93;;;21.00;99.90;;;;;;5037712;28;20447;-46
2021/08/14 01:57:07;;;;;;;7.37;5.10;;;20.90;99.90;;;;;;5037383;28;20479;-42
2021/08/14 01:59:34;;;;;;;7.50;5.20;;;20.80;99.90;;;;;;5037404;28;20579;-44
2021/08/14 02:02:03;;;;;;;7.40;5.53;;;20.80;99.90;;;;;;5037864;28;20452;-48
2021/08/14 02:04:30;;;;;;;5.87;4.77;;;20.70;99.90;;;;;;5037286;28;20526;-47
2021/08/14 02:06:57;;;;;;;6.27;4.60;;;20.80;99.90;;;;;;5037589;28;20443;-48
2021/08/14 02:09:24;;;;;;;8.03;4.77;;;20.70;99.90;;;;;;5037472;28;20464;-47
2021/08/14 02:11:50;;;;;;;7.23;5.50;;;20.70;99.90;;;;;;5037042;28;20921;-46
2021/08/14 02:14:17;;;;;;;7.73;5.53;;;20.60;99.90;;;;;;5037234;28;20480;-46
2021/08/14 02:16:46;;;;;;;8.13;4.67;;;20.60;99.90;;;;;;5037118;28;20539;-42
2021/08/14 02:19:14;;;;;;;8.07;4.97;;;20.50;99.90;;;;;;5036904;28;20488;-44
2021/08/14 02:21:41;;;;;;;8.13;5.13;;;20.50;99.90;;;;;;5037014;28;20914;-43
2021/08/14 02:24:09;;;;;;;10.33;5.10;;;20.50;99.90;;;;;;5037058;28;20448;-42
2021/08/14 02:26:36;;;;;;;9.20;5.47;;;20.40;99.90;;;;;;5037161;28;20506;-43
2021/08/14 02:29:02;;;;;;;7.63;5.30;;;20.40;99.90;;;;;;5036860;28;20441;-43
2021/08/14 02:31:29;;;;;;;12.17;6.50;;;20.40;99.90;;;;;;5037086;28;20514;-44
2021/08/14 02:33:56;;;;;;;6.80;5.53;;;20.30;99.90;;;;;;5037071;28;20513;-43
2021/08/14 02:36:26;;;;;;;8.80;5.73;;;20.30;99.90;;;;;;5036824;28;20455;-45
2021/08/14 02:38:53;;;;;;;8.40;5.80;;;20.40;99.90;;;;;;5036669;28;20464;-42
2021/08/14 02:41:19;;;;;;;9.70;5.90;;;20.40;99.90;;;;;;5036710;28;20464;-42
2021/08/14 02:43:46;;;;;;;7.60;5.40;;;20.40;99.90;;;;;;5037009;28;20448;-45
2021/08/14 02:46:12;;;;;;;10.23;5.40;;;20.50;99.90;;;;;;5036516;28;20448;-49
2021/08/14 02:48:39;;;;;;;9.03;5.60;;;20.40;99.90;;;;;;5036705;28;20441;-48
2021/08/14 02:51:06;;;;;;;7.30;6.20;;;20.40;99.90;;;;;;5036532;28;20948;-44
2021/08/14 02:53:34;;;;;;;7.87;5.90;;;20.40;99.90;;;;;;5036394;28;20517;-42
2021/08/14 02:56:02;;;;;;;6.00;5.07;;;20.40;99.90;;;;;;5036377;28;20447;-45
2021/08/14 02:58:29;;;;;;;6.80;5.10;;;20.40;99.90;;;;;;5036492;28;20484;-43
2021/08/14 03:00:56;;;;;;;6.60;5.50;;;20.30;99.90;;;;;;5036495;28;20909;-43
2021/08/14 03:03:22;;;;;;;11.00;5.60;;;20.30;99.90;;;;;;5036768;28;20535;-42
2021/08/14 03:05:52;;;;;;;7.90;4.90;;;20.30;99.90;;;;;;5036792;28;20448;-43
2021/08/14 03:08:19;;;;;;;8.33;5.03;;;20.30;99.90;;;;;;5036389;28;20519;-45
2021/08/14 03:10:47;;;;;;;9.10;5.37;;;20.40;99.90;;;;;;5036130;28;20448;-45
2021/08/14 03:13:16;;;;;;;6.90;4.70;;;20.40;99.90;;;;;;5036436;28;20452;-44
2021/08/14 03:15:43;;;;;;;8.33;5.57;;;20.40;99.90;;;;;;5035954;28;20484;-44
2021/08/14 03:18:10;;;;;;;8.60;5.37;;;20.40;99.90;;;;;;5035893;28;21030;-45
2021/08/14 03:20:36;;;;;;;5.60;4.57;;;20.40;99.90;;;;;;5036210;28;20538;-49
2021/08/14 03:23:03;;;;;;;8.73;4.60;;;20.40;99.90;;;;;;5035779;28;20444;-46
2021/08/14 03:25:30;;;;;;;7.23;4.97;;;20.40;99.90;;;;;;5035765;28;20975;-45
2021/08/14 03:28:00;;;;;;;7.83;4.97;;;20.40;99.90;;;;;;5036040;28;20460;-50
2021/08/14 03:30:27;;;;;;;11.37;5.50;;;20.40;99.90;;;;;;5035692;28;20896;-47
2021/08/14 03:32:53;;;;;;;7.47;4.50;;;20.40;99.90;;;;;;5035876;28;20444;-42
2021/08/14 03:35:20;;;;;;;5.33;4.50;;;20.40;99.90;;;;;;5035769;28;20444;-41
2021/08/14 03:37:47;;;;;;;9.90;5.03;;;20.40;99.90;;;;;;5035771;28;20571;-46
2021/08/14 03:40:14;;;;;;;12.83;5.33;;;20.40;99.90;;;;;;5035482;28;20455;-45
2021/08/14 03:42:41;;;;;;;6.93;4.30;;;20.40;99.90;;;;;;5035743;28;20452;-42
2021/08/14 03:45:10;;;;;;;7.87;4.90;;;20.40;99.90;;;;;;5035757;28;20440;-43
2021/08/14 03:47:37;;;;;;;4.83;4.33;;;20.30;99.90;;;;;;5035237;28;20476;-44
2021/08/14 03:50:08;;;;;;;7.97;4.23;;;20.30;99.90;;;;;;5035372;28;20442;-49
2021/08/14 03:52:34;;;;;;;6.40;4.50;;;20.40;99.90;;;;;;5035725;28;20808;-49
2021/08/14 03:55:02;;;;;;;11.40;5.10;;;20.30;99.90;;;;;;5035310;28;20456;-46
2021/08/14 03:57:29;;;;;;;9.63;4.53;;;20.30;99.90;;;;;;5035154;28;20448;-44
2021/08/14 03:59:56;;;;;;;6.33;4.63;;;20.30;99.90;;;;;;5035420;28;20452;-41
2021/08/14 04:02:24;;;;;;;5.20;4.13;;;20.30;99.90;;;;;;5035198;28;20476;-47
2021/08/14 04:04:51;;;;;;;7.37;5.00;;;20.30;99.90;;;;;;5035116;28;20510;-47
2021/08/14 04:07:17;;;;;;;6.07;4.87;;;20.30;99.90;;;;;;5035371;28;20506;-46
2021/08/14 04:09:44;;;;;;;6.43;4.63;;;20.30;99.90;;;;;;5034548;28;20444;-48
2021/08/14 04:12:11;;;;;;;7.13;4.67;;;20.20;99.90;;;;;;5035201;28;20786;-42
2021/08/14 04:14:38;;;;;;;10.37;5.40;;;20.20;99.90;;;;;;5035094;28;20484;-42
2021/08/14 04:17:05;;;;;;;6.43;4.77;;;20.20;99.90;;;;;;5034992;28;20440;-42
2021/08/14 04:19:33;;;;;;;9.13;5.40;;;20.20;99.90;;;;;;5035294;28;20510;-45
2021/08/14 04:22:00;;;;;;;11.17;6.13;;;20.20;99.90;;;;;;5034651;28;20864;-44
2021/08/14 04:24:27;;;;;;;5.77;4.53;;;20.20;99.90;;;;;;5034991;28;20506;-48
2021/08/14 04:26:54;;;;;;;7.77;4.73;;;20.10;99.90;;;;;;5034989;28;20456;-43
2021/08/14 04:29:21;;;;;;;11.63;5.27;;;20.10;99.90;;;;;;5034681;28;20495;-44
2021/08/14 04:31:48;;;;;;;10.43;5.23;;;20.00;99.90;;;;;;5034982;28;20850;-42
2021/08/14 04:34:14;;;;;;;9.53;4.53;;;19.90;99.90;;;;;;5034712;28;20486;-45
2021/08/14 04:36:42;;;;;;;8.63;3.97;;;19.90;99.90;;;;;;5035010;28;20813;-42
2021/08/14 04:39:09;;;;;;;8.83;4.57;;;19.90;99.90;;;;;;5034938;28;20502;-44
2021/08/14 04:41:36;;;;;;;9.00;4.17;;;19.80;99.90;;;;;;5034978;28;20433;-46
2021/08/14 04:44:02;;;;;;;7.43;4.37;;;19.90;99.90;;;;;;5034839;28;20518;-47
2021/08/14 04:46:29;;;;;;;10.63;3.90;;;19.80;99.90;;;;;;5034723;28;20448;-45
2021/08/14 04:48:56;;;;;;;13.73;4.40;;;19.80;99.90;;;;;;5034564;28;20545;-42
2021/08/14 04:51:22;;;;;;;12.40;5.10;;;19.70;99.90;;;;;;5034749;28;20955;-44
2021/08/14 04:53:50;;;;;;;8.13;3.60;;;19.80;99.90;;;;;;5034497;28;20514;-44
2021/08/14 04:56:17;;;;;;;15.77;4.50;;;19.80;99.90;;;;;;5035022;28;20452;-45
2021/08/14 04:58:44;;;;;;;7.03;5.50;;;19.80;99.90;;;;;;5034514;28;20470;-48
2021/08/14 05:01:10;;;;;;;7.00;4.27;;;19.70;99.90;;;;;;5034672;28;20921;-44
2021/08/14 05:03:37;;;;;;;14.47;4.87;;;19.80;99.90;;;;;;5034256;28;20505;-43
2021/08/14 05:06:03;;;;;;;11.77;4.57;;;19.70;99.90;;;;;;5034243;28;20551;-48
2021/08/14 05:08:30;;;;;;;15.00;5.00;;;19.80;99.90;;;;;;5034455;28;20488;-47
2021/08/14 05:10:58;;;;;;;11.27;4.33;;;19.80;99.90;;;;;;5034287;28;20456;-44
2021/08/14 05:13:25;;;;;;;10.13;4.20;;;19.80;99.90;;;;;;5034517;28;20790;-47
2021/08/14 05:15:51;;;;;;;6.73;4.20;;;19.90;99.90;;;;;;5033976;28;20867;-50
2021/08/14 05:18:18;;;;;;;9.40;4.73;;;19.90;99.90;;;;;;5034259;28;20518;-44
2021/08/14 05:20:45;;;;;;;11.13;4.90;;;19.90;99.90;;;;;;5037326;28;20835;-44
2021/08/14 05:23:12;;;;;;;8.83;5.20;;;19.90;99.90;;;;;;5038427;28;20444;-46
2021/08/14 05:25:38;;;;;;;9.80;5.03;;;19.90;99.90;;;;;;5038508;28;20502;-43
2021/08/14 05:28:07;;;;;;;8.40;4.97;;;19.90;99.90;;;;;;5038049;28;20831;-43
2021/08/14 05:30:33;;;;;;;10.50;5.20;;;20.00;99.90;;;;;;5038295;28;20468;-42
2021/08/14 05:33:00;;;;;;;7.93;4.20;;;20.00;99.90;;;;;;5037944;28;20955;-45
2021/08/14 05:35:26;;;;;;;8.83;4.40;;;20.00;99.90;;;;;;5038320;28;20482;-43
2021/08/14 05:37:53;;;;;;;9.67;4.67;;;20.00;99.90;;;;;;5038534;28;20440;-44
2021/08/14 05:40:20;;;;;;;5.90;4.50;;;20.10;99.90;;;;;;5037993;28;20456;-43
2021/08/14 05:42:46;;;;;;;16.23;5.40;;;20.10;99.90;;;;;;5038001;28;20437;-45
2021/08/14 05:45:14;;;;;;;10.83;4.83;;;20.10;99.90;;;;;;5037676;28;20496;-47
2021/08/14 05:47:41;;;;;;;8.63;4.37;;;20.10;99.90;;;;;;5038250;28;20451;-50
2021/08/14 05:50:09;;;;;;;7.73;4.57;;;20.10;99.90;;;;;;5037990;28;20825;-50
2021/08/14 05:52:35;;;;;;;9.50;4.87;;;20.10;99.90;;;;;;5037669;28;20533;-45
2021/08/14 05:55:02;;;;;;;7.17;4.50;;;20.10;99.90;;;;;;5037934;28;20510;-44
2021/08/14 05:57:29;;;;;;;14.83;5.10;;;20.20;99.90;;;;;;5037712;28;20457;-48
2021/08/14 05:59:55;;;;;;;7.40;4.03;;;20.20;99.90;;;;;;5037648;28;20440;-49
2021/08/14 06:02:23;;;;;;;12.37;6.00;;;20.20;99.90;;;;;;5037710;28;20521;-43
2021/08/14 06:04:50;;;;;;;10.77;6.00;;;20.20;99.90;;;;;;5037593;28;20456;-43
2021/08/14 06:07:16;;;;;;;7.00;5.00;;;20.30;99.90;;;;;;5037639;28;20444;-45
2021/08/14 06:09:43;;;;;;;10.13;4.40;;;20.30;99.90;;;;;;5037248;28;20546;-43
2021/08/14 06:12:10;;;;;;;10.80;4.90;;;20.30;99.90;;;;;;5037562;28;20444;-45
2021/08/14 06:14:37;;;;;;;7.27;4.80;;;20.40;99.90;;;;;;5037118;28;20542;-45
2021/08/14 06:17:06;;;;;;;9.23;4.30;;;20.60;99.90;;;;;;5037497;28;20474;-48
2021/08/14 06:19:36;;;;;;;9.23;5.17;;;20.70;99.90;;;;;;5037303;28;20801;-48
2021/08/14 06:22:03;;;;;;;16.00;5.43;;;20.90;99.90;;;;;;5037401;28;20452;-45
2021/08/14 06:24:31;;;;;;;6.73;3.83;;;21.10;99.90;;;;;;5037267;28;20881;-50
2021/08/14 06:26:57;;;;;;;6.90;4.10;;;21.20;99.90;;;;;;5037052;28;20448;-47
2021/08/14 06:29:24;;;;;;;9.63;4.57;;;21.40;99.90;;;;;;5037023;28;20480;-46
2021/08/14 06:31:50;;;;;;;8.20;4.47;;;21.50;99.90;;;;;;5036234;28;20501;-50
2021/08/14 06:34:17;;;;;;;11.70;4.50;;;21.70;99.90;;;;;;5036774;28;20487;-43
2021/08/14 06:36:45;;;;;;;9.60;4.30;;;21.80;99.90;;;;;;5037317;28;20444;-46
2021/08/14 06:39:12;;;;;;;8.57;3.97;;;21.80;99.90;;;;;;5036727;28;20448;-45
2021/08/14 06:41:38;;;;;;;9.23;4.93;;;21.90;99.90;;;;;;5036599;28;20933;-45
2021/08/14 06:44:05;;;;;;;10.17;4.13;;;21.90;99.90;;;;;;5036536;28;20487;-43
2021/08/14 06:46:32;;;;;;;8.40;4.90;;;21.90;99.90;;;;;;5036687;28;20502;-42
2021/08/14 06:48:59;;;;;;;7.67;4.73;;;22.00;99.90;;;;;;5036759;28;20476;-45
2021/08/14 06:51:26;;;;;;;10.10;4.97;;;22.00;99.90;;;;;;5036489;28;20448;-45
2021/08/14 06:53:53;;;;;;;7.67;4.80;;;21.90;99.90;;;;;;5036699;28;20444;-44
2021/08/14 06:56:20;;;;;;;10.07;4.33;;;21.80;99.90;;;;;;5036364;28;20506;-43
2021/08/14 06:58:47;;;;;;;7.03;4.00;;;21.90;99.90;;;;;;5036432;28;20840;-43
2021/08/14 07:01:13;;;;;;;11.63;5.20;;;21.90;99.90;;;;;;5036496;28;20834;-50
2021/08/14 07:03:40;;;;;;;8.93;4.37;;;21.90;99.90;;;;;;5036269;28;20460;-45
2021/08/14 07:06:07;;;;;;;5.00;3.43;;;22.00;99.90;;;;;;5036407;28;20448;-49
2021/08/14 07:08:33;;;;;;;6.33;3.67;;;22.10;99.90;;;;;;5036174;28;20453;-48
2021/08/14 07:11:01;;;;;;;4.80;3.77;;;22.20;99.90;;;;;;5036487;28;20439;-42
2021/08/14 07:13:28;;;;;;;6.50;3.53;;;22.40;99.90;;;;;;5036214;28;20824;-42
2021/08/14 07:15:54;;;;;;;7.90;4.27;;;22.50;99.90;;;;;;5035735;28;20475;-45
2021/08/14 07:18:21;;;;;;;9.23;3.90;;;22.60;99.90;;;;;;5035959;28;20452;-45
2021/08/14 07:20:48;;;;;;;5.87;3.73;;;22.70;99.90;;;;;;5035866;28;20448;-49
2021/08/14 07:23:14;;;;;;;12.00;4.77;;;22.90;99.90;;;;;;5035726;28;20452;-43
2021/08/14 07:25:41;;;;;;;6.87;3.83;;;23.10;99.90;;;;;;5035936;28;20514;-47
2021/08/14 07:28:09;;;;;;;10.10;4.27;;;23.20;99.90;;;;;;5035844;28;20448;-44
2021/08/14 07:30:36;;;;;;;10.97;4.10;;;23.20;99.90;;;;;;5035901;28;20476;-45
2021/08/14 07:33:02;;;;;;;11.40;3.40;;;23.20;99.90;;;;;;5035506;28;21096;-48
2021/08/14 07:35:29;;;;;;;7.23;3.60;;;23.20;99.90;;;;;;5035781;28;20452;-45
2021/08/14 07:37:56;;;;;;;11.83;3.80;;;23.20;99.90;;;;;;5035499;28;20529;-49
2021/08/14 07:40:24;;;;;;;6.10;3.10;;;23.10;99.90;;;;;;5035624;28;20505;-45
2021/08/14 07:42:52;;;;;;;6.17;2.93;;;23.10;99.90;;;;;;5035573;28;20491;-43
2021/08/14 07:45:23;;;;;;;7.23;3.30;;;23.00;99.90;;;;;;5035556;28;20897;-43
2021/08/14 07:47:51;;;;;;;8.57;3.20;;;22.80;99.90;;;;;;5035527;28;20502;-46
2021/08/14 07:50:19;;;;;;;10.10;4.40;;;22.70;99.90;;;;;;5035200;28;20487;-42
2021/08/14 07:52:46;;;;;;;7.00;3.40;;;22.60;99.90;;;;;;5035484;28;20464;-45
2021/08/14 07:55:13;;;;;;;7.80;3.70;;;22.80;99.90;;;;;;5035379;28;20448;-42
2021/08/14 07:57:41;;;;;;;8.23;3.60;;;23.80;99.90;;;;;;5035181;28;20452;-46
2021/08/14 08:00:09;;;;;;;6.00;3.03;;;25.10;99.90;;;;;;5035071;28;20556;-47
2021/08/14 08:02:38;;;;;;;7.67;3.67;;;26.40;99.90;;;;;;5035111;28;20451;-49
2021/08/14 08:05:07;;;;;;;7.40;3.37;;;28.00;98.70;;;;;;5035291;28;20440;-45
2021/08/14 08:07:34;;;;;;;8.73;4.13;;;29.30;91.90;;;;;;5035274;28;20444;-51
2021/08/14 08:10:02;;;;;;;5.40;3.07;;;29.80;84.60;;;;;;5034700;28;20491;-51
2021/08/14 08:12:29;;;;;;;7.30;3.30;;;30.60;78.50;;;;;;5035119;28;20454;-43
2021/08/14 08:14:55;;;;;;;7.93;3.60;;;31.30;74.10;;;;;;5034760;28;20790;-48
2021/08/14 08:17:22;;;;;;;4.53;3.03;;;31.90;69.60;;;;;;5034596;28;20953;-46
2021/08/14 08:19:50;;;;;;;4.47;3.40;;;32.50;64.70;;;;;;5034943;28;20505;-45
2021/08/14 08:22:17;;;;;;;6.27;3.00;;;33.00;61.90;;;;;;5034826;28;20444;-44
2021/08/14 08:24:43;;;;;;;7.10;3.50;;;33.50;59.70;;;;;;5034975;28;20514;-46
2021/08/14 08:27:10;;;;;;;4.83;3.20;;;33.50;58.10;;;;;;5034586;28;20444;-49
2021/08/14 08:29:38;;;;;;;6.53;3.20;;;33.40;57.90;;;;;;5034689;28;20507;-49
2021/08/14 08:32:06;;;;;;;8.30;3.80;;;33.80;56.60;;;;;;5034296;28;20470;-48
2021/08/14 08:34:32;;;;;;;8.40;3.07;;;33.30;55.50;;;;;;5034627;28;20483;-51
2021/08/14 08:37:00;;;;;;;5.17;3.50;;;32.50;56.80;;;;;;5034358;28;20521;-46
2021/08/14 08:39:28;;;;;;;8.30;4.00;;;31.10;58.10;;;;;;5034325;28;20452;-51
2021/08/14 08:41:56;;;;;;;5.20;3.30;;;31.00;58.80;;;;;;5034568;28;20490;-43
2021/08/14 08:44:23;;;;;;;4.40;2.77;;;31.00;58.80;;;;;;5034275;28;20452;-46
2021/08/14 08:46:50;;;;;;;7.83;3.30;;;30.10;59.30;;;;;;5034386;28;20455;-44
2021/08/14 08:49:19;;;;;;;4.90;3.17;;;29.70;60.60;;;;;;5033996;28;20949;-45
2021/08/14 08:51:46;;;;;;;6.20;3.73;;;29.50;61.20;;;;;;5034253;28;20955;-47
2021/08/14 08:54:16;;;;;;;6.33;4.17;;;29.60;61.40;;;;;;5034055;28;20455;-48
2021/08/14 08:56:42;;;;;;;6.83;3.60;;;30.20;60.30;;;;;;5034243;28;20444;-46
2021/08/14 08:59:11;;;;;;;5.63;3.63;;;30.70;59.80;;;;;;5034355;28;20525;-46
2021/08/14 09:01:38;;;;;;;5.50;4.07;;;31.40;58.80;;;;;;5034422;28;20506;-48
2021/08/14 09:04:25;;;;;;;11.73;3.50;;;32.20;57.10;;;;;;5034244;28;20590;-47
2021/08/14 09:06:53;;;;;;;4.00;3.40;;;32.50;56.40;;;;;;5034284;28;20543;-44
2021/08/14 09:09:26;;;;;;;5.40;3.60;;;32.00;56.40;;;;;;5033944;28;20484;-46
2021/08/14 09:11:55;;;;;;;6.70;4.10;;;31.60;56.90;;;;;;5034228;28;20459;-44
2021/08/14 09:14:22;;;;;;;7.70;4.13;;;31.00;58.40;;;;;;5034026;28;20495;-47
2021/08/14 09:17:04;;;;;;;7.13;3.70;;;31.30;58.50;;;;;;5033999;28;20465;-44
2021/08/14 09:19:31;;;;;;;7.60;3.37;;;31.20;57.90;;;;;;5034082;28;20507;-47
2021/08/14 09:21:57;;;;;;;6.47;3.60;;;31.30;58.10;;;;;;5034110;28;20448;-47
2021/08/14 09:24:36;;;;;;;6.57;4.17;;;31.80;58.00;;;;;;5034225;28;20460;-47
2021/08/14 09:27:04;;;;;;;14.40;3.73;;;31.90;56.80;;;;;;5034131;28;20502;-49
2021/08/14 09:29:32;;;;;;;4.20;3.17;;;32.10;56.80;;;;;;5033363;28;20606;-46
2021/08/14 09:32:00;;;;;;;7.90;3.40;;;32.80;55.70;;;;;;5034109;28;20456;-48
2021/08/14 09:34:28;;;;;;;5.93;3.20;;;33.10;54.50;;;;;;5033791;28;20447;-44
2021/08/14 09:37:02;;;;;;;9.70;3.93;;;32.50;55.00;;;;;;5033851;28;20451;-48
2021/08/14 09:39:31;;;;;;;7.47;4.40;;;32.30;56.20;;;;;;5033987;28;20494;-46
2021/08/14 09:42:05;;;;;;;9.37;4.20;;;32.70;56.00;;;;;;5033713;28;20487;-43
2021/08/14 09:44:33;;;;;;;12.63;4.70;;;33.30;54.90;;;;;;5034055;28;20467;-43
2021/08/14 09:47:00;;;;;;;5.13;4.30;;;33.60;55.10;;;;;;5033632;28;20960;-49
2021/08/14 09:49:26;;;;;;;5.07;3.77;;;33.80;53.10;;;;;;5034056;28;20452;-46
2021/08/14 09:51:53;;;;;;;7.40;4.73;;;33.90;52.40;;;;;;5033965;28;20444;-48
2021/08/14 09:54:21;;;;;;;8.87;4.70;;;33.60;52.70;;;;;;5033748;28;20490;-46
2021/08/14 09:56:49;;;;;;;6.17;3.67;;;33.90;52.80;;;;;;5033871;28;20789;-48
2021/08/14 09:59:19;;;;;;;4.77;3.30;;;33.90;52.00;;;;;;5033820;28;20837;-47
2021/08/14 10:01:47;;;;;;;7.80;3.83;;;32.70;53.00;;;;;;5033620;28;20476;-50
2021/08/14 10:04:18;;;;;;;5.00;3.00;;;32.00;53.90;;;;;;5033869;28;20467;-51
2021/08/14 10:06:45;;;;;;;6.37;3.30;;;31.70;55.30;;;;;;5034975;28;20774;-47
2021/08/14 10:09:12;;;;;;;7.47;3.30;;;31.10;55.50;;;;;;5037130;28;20452;-46
2021/08/14 10:11:40;;;;;;;6.70;3.63;;;30.30;56.70;;;;;;5037334;28;20484;-48
2021/08/14 10:14:10;;;;;;;4.60;3.10;;;30.00;57.10;;;;;;5036983;28;20471;-46
2021/08/14 10:16:37;;;;;;;7.57;3.23;;;29.90;57.90;;;;;;5037325;28;20461;-49
2021/08/14 10:19:04;;;;;;;7.13;3.20;;;30.20;57.70;;;;;;5036890;28;20471;-46
2021/08/14 10:21:31;;;;;;;4.63;3.57;;;30.40;57.60;;;;;;5037161;28;20829;-47
2021/08/14 10:23:57;;;;;;;5.47;4.07;;;30.50;57.40;;;;;;5037025;28;20510;-45
2021/08/14 10:26:29;;;;;;;7.07;4.93;;;30.90;57.40;;;;;;5037073;28;20833;-51
2021/08/14 10:28:59;;;;;;;10.33;4.50;;;31.30;56.60;;;;;;5037000;28;20528;-47
2021/08/14 10:31:47;;;;;;;5.63;3.63;;;32.10;55.20;;;;;;5036840;28;20483;-46
2021/08/14 10:34:33;;;;;;;7.77;4.53;;;32.70;53.90;;;;;;5036625;28;20444;-48
2021/08/14 10:37:01;;;;;;;6.93;4.83;;;33.30;54.00;;;;;;5036504;28;20467;-51
2021/08/14 10:39:31;;;;;;;8.20;3.83;;;33.40;51.80;;;;;;5036743;28;20451;-47
2021/08/14 10:41:59;;;;;;;5.70;4.20;;;33.40;51.40;;;;;;5036678;28;20854;-49
2021/08/14 10:44:47;;;;;;;8.97;4.00;;;33.10;52.40;;;;;;5036410;28;20467;-47
2021/08/14 10:47:42;;;;;;;7.27;4.00;;;32.90;52.90;;;;;;5036364;28;20444;-46
2021/08/14 10:50:09;;;;;;;9.93;5.00;;;32.00;53.80;;;;;;5036695;28;20495;-46
2021/08/14 10:52:36;;;;;;;5.87;3.40;;;31.30;55.20;;;;;;5036541;28;20452;-43
2021/08/14 10:55:18;;;;;;;7.40;3.80;;;30.80;56.00;;;;;;5036657;28;20457;-44
2021/08/14 10:57:49;;;;;;;9.27;7.10;;;30.70;56.20;;;;;;5036263;28;20448;-45
2021/08/14 11:00:27;;;;;;;6.07;4.10;;;30.80;56.50;;;;;;5036642;28;20444;-45
2021/08/14 11:03:14;;;;;;;9.57;4.30;;;30.90;55.50;;;;;;5036183;28;20432;-43
2021/08/14 11:05:45;;;;;;;5.67;3.40;;;30.60;55.90;;;;;;5036068;28;20448;-42
2021/08/14 11:08:38;;;;;;;5.17;3.33;;;30.30;56.50;;;;;;5036726;28;20955;-55
2021/08/14 11:11:36;;;;;;;8.03;3.30;;;30.20;57.60;;;;;;5035894;28;20990;-54
2021/08/14 11:14:11;;;;;;;6.00;3.57;;;30.10;57.20;;;;;;5035700;28;20494;-53
2021/08/14 11:16:59;;;;;;;4.73;3.07;;;29.70;56.80;;;;;;5036222;28;20436;-53
2021/08/14 11:19:48;;;;;;;6.90;3.30;;;29.20;57.10;;;;;;5036077;28;20475;-48
2021/08/14 11:22:25;;;;;;;4.30;3.23;;;29.20;58.00;;;;;;5035889;28;20452;-52
2021/08/14 11:24:54;;;;;;;5.67;3.60;;;29.00;58.20;;;;;;5036068;28;20805;-53
2021/08/14 11:27:23;;;;;;;5.27;2.90;;;29.10;57.80;;;;;;5036042;28;20836;-53
2021/08/14 11:29:56;;;;;;;7.70;3.63;;;29.00;57.40;;;;;;5035623;28;20448;-53
2021/08/14 11:32:23;;;;;;;6.43;3.13;;;28.90;57.90;;;;;;5035949;28;20836;-51
2021/08/14 11:34:52;;;;;;;5.70;3.47;;;29.20;58.00;;;;;;5035605;28;20823;-53
2021/08/14 11:37:19;;;;;;;4.27;3.30;;;29.30;56.80;;;;;;5035769;28;20596;-52
2021/08/14 11:39:46;;;;;;;5.63;4.37;;;29.30;56.90;;;;;;5035757;28;20750;-50
2021/08/14 11:42:13;;;;;;;8.60;4.30;;;29.20;56.70;;;;;;5035386;28;20460;-52
2021/08/14 11:44:42;;;;;;;7.50;3.87;;;29.00;56.40;;;;;;5035680;28;20436;-55
2021/08/14 11:47:12;;;;;;;3.30;2.97;;;28.70;56.80;;;;;;5035451;28;20456;-53
2021/08/14 11:49:56;;;;;;;7.10;3.53;;;28.60;56.60;;;;;;5035284;28;20448;-51
2021/08/14 11:52:24;;;;;;;6.03;3.60;;;28.40;57.30;;;;;;5035580;28;20440;-49
2021/08/14 11:54:59;;;;;;;7.63;3.60;;;28.40;57.70;;;;;;5035122;28;20448;-49
2021/08/14 11:57:30;;;;;;;5.47;3.57;;;28.10;57.20;;;;;;5035495;28;20482;-48
2021/08/14 11:59:59;;;;;;;5.10;3.50;;;28.00;57.60;;;;;;5035199;28;20535;-48
2021/08/14 12:02:26;;;;;;;3.47;3.17;;;28.10;57.70;;;;;;5035219;28;20459;-50
2021/08/14 12:04:54;;;;;;;5.73;3.50;;;28.00;58.30;;;;;;5035597;28;20448;-48
2021/08/14 12:07:22;;;;;;;4.50;3.87;;;28.00;58.50;;;;;;5035228;28;20452;-52
2021/08/14 12:09:50;;;;;;;8.87;4.10;;;28.10;58.70;;;;;;5035594;28;20466;-51
2021/08/14 12:12:19;;;;;;;5.57;3.33;;;28.30;59.00;;;;;;5034944;28;20537;-49
2021/08/14 12:14:46;;;;;;;4.97;4.47;;;28.40;57.80;;;;;;5034635;28;20514;-52
2021/08/14 12:17:14;;;;;;;7.90;3.30;;;28.40;58.10;;;;;;5035005;28;20460;-55
2021/08/14 12:19:49;;;;;;;7.53;3.37;;;28.20;57.30;;;;;;5034885;28;20444;-55
2021/08/14 12:22:18;;;;;;;9.03;3.73;;;28.10;57.20;;;;;;5035210;28;20502;-53
2021/08/14 12:24:46;;;;;;;5.10;3.03;;;28.10;58.10;;;;;;5034724;28;20460;-53
2021/08/14 12:27:26;;;;;;;3.90;2.97;;;28.20;57.50;;;;;;5034800;28;20518;-53
2021/08/14 12:29:53;;;;;;;5.23;3.10;;;28.00;58.00;;;;;;5034132;28;20494;-50
2021/08/14 12:32:28;;;;;;;4.33;3.60;;;27.90;58.40;;;;;;5034617;28;20479;-51
2021/08/14 12:35:13;;;;;;;7.43;4.03;;;27.50;58.50;;;;;;5034478;28;20890;-49
2021/08/14 12:37:41;;;;;;;5.43;3.17;;;27.30;60.00;;;;;;5034424;28;20514;-53
2021/08/14 12:40:09;;;;;;;5.13;4.40;;;27.30;60.30;;;;;;5034693;28;20890;-53
2021/08/14 12:42:38;;;;;;;7.27;4.00;;;27.20;59.80;;;;;;5034403;28;20456;-51
2021/08/14 12:45:13;;;;;;;4.03;3.20;;;27.10;60.50;;;;;;5034492;28;20452;-52
2021/08/14 12:47:40;;;;;;;7.03;3.23;;;27.20;61.30;;;;;;5034681;28;20432;-49
2021/08/14 12:50:17;;;;;;;3.93;3.00;;;27.30;60.80;;;;;;5034109;28;20456;-50
2021/08/14 12:53:00;;;;;;;4.10;3.30;;;27.40;60.40;;;;;;5034511;28;20850;-48